Terminal Aerodrome Forecast
Issued by NWS

Home | Current Version | Previous Version | Text Only | Print | Product List | Glossary On
Versions: 1 2 3 4 5 6 7 8 9 10 11 12 13 14 15 16 17 18 19 20 21
000
FTUS43 KIND 041725
TAFLAF
TAF
KLAF 041725Z 0418/0518 33018G26KT P6SM SCT025 BKN050
     FM042100 34020G28KT P6SM BKN035
     FM050400 34015G23KT P6SM VCSH OVC020
     FM050800 35014KT P6SM VCSH OVC008
     FM051400 01016G24KT P6SM SCT025 BKN035=

USA.gov is the U.S. government's official web portal to all federal, state and local government web resources and services.